Terminal Aerodrome Forecast
Issued by NWS Corpus Christi, TX

Home | Current Version | Previous Version | Text Only | Print | Product List | Glossary On
Versions: 1 2 3 4 5 6 7 8 9 10 11 12 13 14 15 16 17
000
FTUS44 KCRP 211100
TAFCRP
TAF
KCRP 211132Z 2112/2212 07005KT P6SM VCTS SCT022CB
      TEMPO 2112/2114 VRB15G25KT 3SM TSRA BKN022CB
     FM211400 08008KT P6SM SCT025 SCT150
     FM211800 08010KT P6SM SCT035
     FM220000 09008KT P6SM SCT025
     FM220600 03004KT P6SM FEW015=

USA.gov is the U.S. government's official web portal to all federal, state and local government web resources and services.